SCC: Daytona Test practice two times

Pos Num Class Team Time Gap To 1st Speed --- --- ----- ---------------------------------------- ---------- ------- ------- ------- 1. 54 GS Hyper Sport 2:03.204...

Pos Num Class Team                                           Time     Gap  To 1st   Speed
--- --- ----- ---------------------------------------- ---------- ------- ------- -------
 1.  54 GS    Hyper Sport                                2:03.204                 104.023
 2.   9 GS    Spirit of Daytona Racing                   2:03.373   0.169   0.169 103.880
 3.   4 GS    Blackforest Motorsports                    2:04.037   0.664   0.833 103.324
 4.   5 GS    Blackforest Motorsports                    2:04.039   0.002   0.835 103.322
 5.  10 GS    Spirit of Daytona Racing                   2:04.216   0.177   1.012 103.175
 6.  55 GS    Hyper Sport                                2:04.317   0.101   1.113 103.091
 7. 154 GS    Jim Click Racing                           2:04.530   0.213   1.326 102.915
 8.  09 GS    Automatic Racing                           2:04.651   0.121   1.447 102.815
 9.  25 GS    Fiorano/ C-MAX Racing                      2:04.799   0.148   1.595 102.693
10.  87 GS    LNS Motorsport                             2:05.082   0.283   1.878 102.461
11.  59 GS    Rehagen Racing                             2:05.137   0.055   1.933 102.416
12.  89 GS    LNS Motorsport                             2:05.152   0.015   1.948 102.403
13.  99 GS    Automatic Racing                           2:05.166   0.014   1.962 102.392
14.  72 GS    BGB Motorsports                            2:05.180   0.014   1.976 102.381
15.  83 GS    BGB Motorsports                            2:05.246   0.066   2.042 102.327
16.  52 GS    Rehagen Racing                             2:05.293   0.047   2.089 102.288
17.  60 GS    Horsepower Ranch                           2:05.722   0.429   2.518 101.939
18.  28 GS    Fall-Line Motorsports                      2:05.768   0.046   2.564 101.902
19.  88 GS    LNS Motorsport                             2:05.822   0.054   2.618 101.858
20.  61 GS    Horsepower Ranch                           2:05.826   0.004   2.622 101.855
21.  46 GS    Fall-Line Motorsports                      2:06.214   0.388   3.010 101.542
22.  79 GS    Kinetic Motorsports                        2:06.615   0.401   3.411 101.220
23.  07 GS    Cardiosport Racing                         2:06.763   0.148   3.559 101.102
24.   3 GS    Blackforest Motorsports                    2:06.864   0.101   3.660 101.022
25.  11 GS    Southwest Racers Group                     2:06.896   0.032   3.692 100.996
26.  80 GS    Kinetic Motorsports                        2:07.126   0.230   3.922 100.813
27.  90 GS    Automatic Racing                           2:07.165   0.039   3.961 100.782
28.  44 GS    ASC Motorsports                            2:07.168   0.003   3.964 100.780
29.  91 GS    Automatic Racing                           2:07.909   0.741   4.705 100.196
30.   6 GS    Blackforest Motorsports                    2:08.215   0.306   5.011  99.957
31.  71 GS    Synergy Racing                             2:08.752   0.537   5.548  99.540
32.  17 GS    Team Centurion                             2:09.216   0.464   6.012  99.183
33.  78 GS    Kinetic Motorsports                        2:11.325   2.109   8.121  97.590
34.  75 ST    Kensai Racing                              2:12.085   0.760   8.881  97.028
35.  86 ST    Classic BMW - Plano                        2:12.365   0.280   9.161  96.823
36. 125 ST    Fountain Motorsports                       2:12.607   0.242   9.403  96.646
37.  76 ST    Kensai Racing                              2:12.651   0.044   9.447  96.614
38.  32 ST    i-MOTO Racing                              2:12.655   0.004   9.451  96.612
39.  50 GS    Eastern Competition Promotorsports         2:12.745   0.090   9.541  96.546
40.  62 ST    Roar Racing                                2:13.576   0.831  10.372  95.945
41.  74 ST    Kensai Racing                              2:13.933   0.357  10.729  95.690
42.  24 ST    V-Pack Motorsport                          2:14.098   0.165  10.894  95.572
43. 126 ST    Fountain Motorsports                       2:14.608   0.510  11.404  95.210
44.  43 GS    ASC Motorsports                            2:14.965   0.357  11.761  94.958
45. 151 ST    Competition Marketing Motorsports          2:15.795   0.830  12.591  94.378
46.  63 ST    Roar Racing                                2:16.103   0.308  12.899  94.164
47. 121 ST    GT Racing                                  2:16.407   0.304  13.203  93.954
48. 131 ST    GT Racing                                  2:16.804   0.397  13.600  93.681
49.  48 ST    Team Cobalt California                     2:16.965   0.161  13.761  93.571
50.  98 ST    Team Cobalt California                     2:17.536   0.571  14.332  93.183
51.  02 ST    Blackforest Motorsports                    2:18.033   0.497  14.829  92.847
52.  34 ST    Whatever Racing                            2:18.358   0.325  15.154  92.629
53.  12 ST    Southwest Racers Group                     2:21.097   2.739  17.893  90.831
54.  31 ST    i-MOTO Racing                              2:27.507   6.410  24.303  86.884
55.  26 GS    Fiorano/ C-MAX Racing                      6:47.413 4:19.90 4:44.20  31.457
56.  40 GS    TRG                                        7:33.303  45.890 5:30.09  28.272
57.   2 GS    Blackforest Motorsports                     No Time
58.  18 GS    Race Prep Motorsports                       No Time
59.  38 GS    BGB Motorsports                             No Time
60.  39 GS    TRG                                         No Time
61.  41 GS    TRG                                         No Time
62.  42 GS    TRG                                         No Time
63.  14 ST    MY Motorsports                              No Time
64.  23 ST    MY Motorsports                              No Time
65.  56 ST    BSI Racing                                  No Time
66.  58 ST    BSI Racing                                  No Time
67.  85 ST    Classic BMW - Plano                         No Time
68. 118 ST    Rotary Power Motorsports                    No Time
69. 138 ST    GS Motorsport                               No Time

Be part of something big

Write a comment
Show comments
About this article
Series Grand-Am
Drivers Jim Click
Teams Kinetic Motorsports , Rehagen Racing , Automatic Racing , Fall-Line Motorsports